Time,TemperatureF,DewpointF,PressureIn,WindDirection,WindDirectionDegrees,WindSpeedMPH,WindSpeedGustMPH,Humidity,HourlyPrecipIn,Conditions,Clouds,dailyrainin,SoftwareType,DateUTC
2013-09-28 01:22:00,43.0,-99.9,-100.00,ENE,66,0.0,10.0,-999,-99.99,,,-99.99,,2013-09-28 08:22:00,
2013-09-28 01:32:00,43.0,-99.9,-100.00,ENE,66,0.0,10.0,-999,-99.99,,,-99.99,,2013-09-28 08:32:00,
2013-09-28 03:10:00,38.0,-99.9,-100.00,NNW,347,2.0,3.0,-999,-99.99,,,-99.99,,2013-09-28 10:10:00,
2013-09-28 03:13:00,39.0,-99.9,-100.00,SE,145,7.0,8.0,-999,-99.99,,,-99.99,,2013-09-28 10:13:00,
2013-09-28 03:22:00,39.0,-99.9,-100.00,SSE,165,5.0,7.0,-999,-99.99,,,-99.99,,2013-09-28 10:22:00,
2013-09-28 03:33:00,39.0,-99.9,-100.00,SSE,165,5.0,7.0,-999,-99.99,,,-99.99,,2013-09-28 10:33:00,
2013-09-28 03:53:00,38.0,-99.9,-100.00,NNW,347,2.0,3.0,-999,-99.99,,,-99.99,,2013-09-28 10:53:00,
2013-09-28 04:03:00,38.0,-99.9,-100.00,NNW,347,2.0,3.0,-999,-99.99,,,-99.99,,2013-09-28 11:03:00,
2013-09-28 04:22:00,39.0,-99.9,-100.00,NNW,343,3.0,4.0,-999,-99.99,,,-99.99,,2013-09-28 11:22:00,
2013-09-28 04:33:00,39.0,-99.9,-100.00,NNW,343,3.0,4.0,-999,-99.99,,,-99.99,,2013-09-28 11:33:00,
2013-09-28 04:40:00,36.0,-99.9,-100.00,SE,138,6.0,6.0,-999,-99.99,,,-99.99,,2013-09-28 11:40:00,
2013-09-28 04:43:00,39.0,-99.9,-100.00,NNW,343,3.0,4.0,-999,-99.99,,,-99.99,,2013-09-28 11:43:00,
2013-09-28 05:22:00,36.0,-99.9,-100.00,SE,138,6.0,6.0,-999,-99.99,,,-99.99,,2013-09-28 12:22:00,
2013-09-28 05:32:00,36.0,-99.9,-100.00,SE,138,6.0,6.0,-999,-99.99,,,-99.99,,2013-09-28 12:32:00,
2013-09-28 07:35:00,43.0,-99.9,-100.00,NNW,335,2.0,2.0,-999,-99.99,,,-99.99,,2013-09-28 14:35:00,
2013-09-28 08:12:00,39.0,-99.9,-100.00,East,90,7.0,11.0,-999,-99.99,,,-99.99,,2013-09-28 15:12:00,
2013-09-28 08:23:00,43.0,-99.9,-100.00,NNW,335,2.0,2.0,-999,-99.99,,,-99.99,,2013-09-28 15:23:00,
2013-09-28 09:50:00,67.0,-99.9,-100.00,NW,306,10.0,14.0,-999,-99.99,,,-99.99,,2013-09-28 16:50:00,
2013-09-28 10:43:00,67.0,-99.9,-100.00,NW,306,10.0,14.0,-999,-99.99,,,-99.99,,2013-09-28 17:43:00,
2013-09-28 11:12:00,68.0,-99.9,-100.00,WNW,301,13.0,14.0,-999,-99.99,,,-99.99,,2013-09-28 18:12:00,
2013-09-28 11:42:00,70.0,-99.9,-100.00,NW,312,7.0,14.0,-999,-99.99,,,-99.99,,2013-09-28 18:42:00,
2013-09-28 11:52:00,70.0,-99.9,-100.00,NW,312,7.0,14.0,-999,-99.99,,,-99.99,,2013-09-28 18:52:00,
2013-09-28 12:20:00,71.0,-99.9,-100.00,NNW,336,6.0,13.0,-999,-99.99,,,-99.99,,2013-09-28 19:20:00,
2013-09-28 12:42:00,71.0,-99.9,-100.00,North,354,8.0,13.0,-999,-99.99,,,-99.99,,2013-09-28 19:42:00,
2013-09-28 12:52:00,73.0,-99.9,-100.00,NNW,332,4.0,13.0,-999,-99.99,,,-99.99,,2013-09-28 19:52:00,
2013-09-28 13:12:00,71.0,-99.9,-100.00,NNW,336,6.0,13.0,-999,-99.99,,,-99.99,,2013-09-28 20:12:00,
2013-09-28 13:50:00,73.0,-99.9,-100.00,NNW,328,4.0,13.0,-999,-99.99,,,-99.99,,2013-09-28 20:50:00,
2013-09-28 14:44:00,73.0,-99.9,-100.00,NNW,328,4.0,13.0,-999,-99.99,,,-99.99,,2013-09-28 21:44:00,
2013-09-28 16:40:00,73.0,-99.9,-100.00,NW,310,5.0,10.0,-999,-99.99,,,-99.99,,2013-09-28 23:40:00,
2013-09-28 16:43:00,75.0,-99.9,-100.00,North,351,4.0,9.0,-999,-99.99,,,-99.99,,2013-09-28 23:43:00,
2013-09-28 16:53:00,75.0,-99.9,-100.00,NNW,345,2.0,9.0,-999,-99.99,,,-99.99,,2013-09-28 23:53:00,
2013-09-28 17:02:00,75.0,-99.9,-100.00,NNW,345,2.0,9.0,-999,-99.99,,,-99.99,,2013-09-29 00:02:00,
2013-09-28 17:12:00,75.0,-99.9,-100.00,NNW,345,2.0,9.0,-999,-99.99,,,-99.99,,2013-09-29 00:12:00,
2013-09-28 17:22:00,73.0,-99.9,-100.00,NW,310,5.0,10.0,-999,-99.99,,,-99.99,,2013-09-29 00:22:00,
2013-09-28 17:32:00,73.0,-99.9,-100.00,NW,310,5.0,10.0,-999,-99.99,,,-99.99,,2013-09-29 00:32:00,
2013-09-28 17:40:00,73.0,-99.9,-100.00,NE,44,4.0,8.0,-999,-99.99,,,-99.99,,2013-09-29 00:40:00,
2013-09-28 18:22:00,73.0,-99.9,-100.00,NE,44,4.0,8.0,-999,-99.99,,,-99.99,,2013-09-29 01:22:00,
2013-09-28 18:32:00,73.0,-99.9,-100.00,NE,44,4.0,8.0,-999,-99.99,,,-99.99,,2013-09-29 01:32:00,
2013-09-28 19:10:00,63.0,-99.9,-100.00,East,95,8.0,9.0,-999,-99.99,,,-99.99,,2013-09-29 02:10:00,
2013-09-28 19:53:00,63.0,-99.9,-100.00,East,95,8.0,9.0,-999,-99.99,,,-99.99,,2013-09-29 02:53:00,
2013-09-28 20:03:00,63.0,-99.9,-100.00,East,95,8.0,9.0,-999,-99.99,,,-99.99,,2013-09-29 03:03:00,
2013-09-28 21:03:00,-999.0,-99.9,-100.00,ESE,102,1.0,3.0,-999,-99.99,,,-99.99,,2013-09-29 04:03:00,
2013-09-28 21:14:00,59.0,-99.9,-100.00,ESE,102,1.0,3.0,-999,-99.99,,,-99.99,,2013-09-29 04:14:00,
2013-09-28 21:24:00,57.0,-99.9,-100.00,ENE,62,2.0,3.0,-999,-99.99,,,-99.99,,2013-09-29 04:24:00,
2013-09-28 21:44:00,53.0,-99.9,-100.00,SE,140,6.0,6.0,-999,-99.99,,,-99.99,,2013-09-29 04:44:00,
2013-09-28 21:50:00,51.0,-99.9,-100.00,NNE,22,1.0,2.0,-999,-99.99,,,-99.99,,2013-09-29 04:50:00,
2013-09-28 21:54:00,53.0,-99.9,-100.00,SE,140,6.0,6.0,-999,-99.99,,,-99.99,,2013-09-29 04:54:00,
2013-09-28 22:43:00,51.0,-99.9,-100.00,NNE,22,1.0,2.0,-999,-99.99,,,-99.99,,2013-09-29 05:43:00,
2013-09-28 23:13:00,49.0,-99.9,-100.00,NNE,12,2.0,2.0,-999,-99.99,,,-99.99,,2013-09-29 06:13:00,
2013-09-28 23:30:00,47.0,-99.9,-100.00,NE,38,0.0,0.0,-999,-99.99,,,-99.99,,2013-09-29 06:30:00,